createdAt,value
2017-12-24T00:00:08.662Z,96016.37
2017-12-24T00:02:37.279Z,96031.82
2017-12-24T00:05:05.211Z,96028.09
2017-12-24T00:07:32.915Z,96036.32
2017-12-24T00:10:00.723Z,96029.02
2017-12-24T00:12:29.278Z,96040.08
2017-12-24T00:14:57.492Z,96042.03
2017-12-24T00:17:25.586Z,96032.28
2017-12-24T00:19:53.494Z,96022.82
2017-12-24T00:22:21.219Z,96014.11
2017-12-24T00:24:49.128Z,96016.36
2017-12-24T00:27:16.981Z,96012.84
2017-12-24T00:29:44.760Z,96014.53
2017-12-24T00:32:12.770Z,96012.26
2017-12-24T00:34:40.407Z,96019.11
2017-12-24T00:37:09.675Z,96015.86
2017-12-24T00:39:38.192Z,96016.66
2017-12-24T00:42:06.108Z,96007.94
2017-12-24T00:44:34.626Z,96009.84
2017-12-24T00:47:02.759Z,96007.52
2017-12-24T00:49:31.605Z,96005.85
2017-12-24T00:51:59.390Z,95999.23
2017-12-24T00:54:27.223Z,96012.46
2017-12-24T00:56:55.091Z,96022.96
2017-12-24T00:59:22.831Z,96013.97
2017-12-24T01:01:50.546Z,96018.10
2017-12-24T01:04:29.105Z,96022.80
2017-12-24T01:06:58.810Z,96015.50
2017-12-24T01:09:26.581Z,96011.48
2017-12-24T01:11:54.371Z,96009.50
2017-12-24T01:14:22.433Z,96011.70
2017-12-24T01:16:53.950Z,96012.86
2017-12-24T01:26:03.660Z,95988.95
2017-12-24T01:28:31.751Z,95985.55
2017-12-24T01:31:00.204Z,95988.97
2017-12-24T01:33:27.864Z,95974.74
2017-12-24T01:35:56.628Z,95969.39
2017-12-24T01:38:24.321Z,95966.49
2017-12-24T01:40:52.569Z,95966.70
2017-12-24T01:43:23.365Z,95969.78
2017-12-24T01:45:51.703Z,95973.20
2017-12-24T01:48:19.310Z,95961.48
2017-12-24T01:50:58.128Z,95955.95
2017-12-24T01:53:26.999Z,95951.27
2017-12-24T01:55:54.842Z,95943.50
2017-12-24T01:58:22.620Z,95943.57
2017-12-24T02:00:51.401Z,95942.45
2017-12-24T02:03:19.654Z,95936.64
2017-12-24T02:05:47.375Z,95936.48
2017-12-24T02:08:15.197Z,95949.59
2017-12-24T02:10:43.176Z,95936.88
2017-12-24T02:13:10.954Z,95935.14
2017-12-24T02:15:39.590Z,95925.66
2017-12-24T02:18:07.266Z,95921.91
2017-12-24T02:20:34.934Z,95921.09
2017-12-24T02:23:02.591Z,95915.68
2017-12-24T02:25:30.673Z,95918.47
2017-12-24T02:27:58.417Z,95913.89
2017-12-24T02:30:26.791Z,95918.17
2017-12-24T02:32:54.418Z,95920.06
2017-12-24T02:35:22.419Z,95919.27
2017-12-24T02:37:50.092Z,95919.84
2017-12-24T02:40:18.130Z,95920.70
2017-12-24T02:43:08.684Z,95923.89
2017-12-24T02:45:38.138Z,95935.17
2017-12-24T02:48:06.077Z,95928.47
2017-12-24T02:50:34.155Z,95925.00
2017-12-24T02:53:02.292Z,95920.40
2017-12-24T02:55:31.313Z,95933.50
2017-12-24T02:57:59.167Z,95917.61
2017-12-24T03:00:26.999Z,95917.27
2017-12-24T03:02:55.173Z,95916.04
2017-12-24T03:05:23.518Z,95905.44
2017-12-24T03:07:51.375Z,95918.00
2017-12-24T03:10:19.180Z,95913.17
2017-12-24T03:12:47.960Z,95905.47
2017-12-24T03:15:16.979Z,95903.82
2017-12-24T03:17:44.806Z,95909.23
2017-12-24T03:20:13.170Z,95909.59
2017-12-24T03:22:40.896Z,95912.56
2017-12-24T03:25:08.927Z,95907.14
2017-12-24T03:27:36.809Z,95914.38
2017-12-24T03:30:06.853Z,95918.57
2017-12-24T03:32:34.619Z,95905.00
2017-12-24T03:35:02.331Z,95904.81
2017-12-24T03:37:30.972Z,95898.69
2017-12-24T03:39:58.630Z,95882.00
2017-12-24T03:42:26.373Z,95871.36
2017-12-24T03:44:54.096Z,95881.25
2017-12-24T03:47:21.757Z,95885.42
2017-12-24T03:49:49.496Z,95877.30
2017-12-24T03:52:17.412Z,95890.32
2017-12-24T03:54:45.316Z,95899.34
2017-12-24T03:57:13.019Z,95893.44
2017-12-24T03:59:40.686Z,95896.77
2017-12-24T04:02:08.400Z,95902.58
2017-12-24T04:04:35.988Z,95908.27
2017-12-24T04:07:03.919Z,95905.32
2017-12-24T04:09:31.609Z,95910.30
2017-12-24T04:11:59.294Z,95914.91
2017-12-24T04:14:27.733Z,95925.18
2017-12-24T04:16:56.046Z,95921.64
2017-12-24T04:19:24.728Z,95921.08
2017-12-24T04:21:52.447Z,95914.98
2017-12-24T04:24:20.390Z,95911.49
2017-12-24T04:26:48.039Z,95910.38
2017-12-24T04:29:15.918Z,95912.49
2017-12-24T04:31:43.751Z,95900.13
2017-12-24T04:34:11.838Z,95895.83
2017-12-24T04:36:39.668Z,95894.99
2017-12-24T04:39:08.291Z,95898.25
2017-12-24T04:41:35.955Z,95902.33
2017-12-24T04:44:03.962Z,95893.63
2017-12-24T04:50:02.181Z,95908.72
2017-12-24T04:52:29.949Z,95905.55
2017-12-24T04:54:57.684Z,95905.34
2017-12-24T04:57:26.285Z,95909.65
2017-12-24T04:59:54.423Z,95901.67
2017-12-24T05:02:22.177Z,95907.41
2017-12-24T05:04:50.100Z,95904.91
2017-12-24T05:07:17.731Z,95904.27
2017-12-24T05:09:45.853Z,95908.39
2017-12-24T05:12:13.486Z,95900.29
2017-12-24T05:14:41.490Z,95891.67
2017-12-24T05:17:09.256Z,95893.27
2017-12-24T05:19:36.917Z,95893.48
2017-12-24T05:22:04.825Z,95898.00
2017-12-24T05:24:32.542Z,95891.25
2017-12-24T05:27:00.319Z,95893.48
2017-12-24T05:29:28.194Z,95895.76
2017-12-24T05:31:56.354Z,95896.42
2017-12-24T05:34:24.080Z,95894.85
2017-12-24T05:36:51.765Z,95888.58
2017-12-24T05:39:19.525Z,95891.23
2017-12-24T05:41:47.676Z,95896.10
2017-12-24T05:44:15.375Z,95881.82
2017-12-24T05:46:43.095Z,95892.33
2017-12-24T05:49:19.080Z,95893.77
2017-12-24T05:51:46.773Z,95901.19
2017-12-24T05:54:14.523Z,95887.51
2017-12-24T05:56:42.217Z,95885.37
2017-12-24T05:59:10.030Z,95892.04
2017-12-24T06:01:37.779Z,95888.59
2017-12-24T06:04:05.741Z,95895.06
2017-12-24T06:06:33.625Z,95887.99
2017-12-24T06:09:01.382Z,95888.30
2017-12-24T06:11:29.401Z,95893.79
2017-12-24T06:14:06.181Z,95888.55
2017-12-24T06:16:33.924Z,95893.98
2017-12-24T06:19:01.875Z,95891.84
2017-12-24T06:21:29.721Z,95884.95
2017-12-24T06:23:57.614Z,95891.88
2017-12-24T06:26:25.352Z,95881.87
2017-12-24T06:28:53.468Z,95873.96
2017-12-24T06:31:22.093Z,95878.34
2017-12-24T06:33:49.742Z,95887.66
2017-12-24T06:36:17.447Z,95890.63
2017-12-24T06:38:45.916Z,95899.04
2017-12-24T06:41:13.601Z,95914.78
2017-12-24T06:43:41.260Z,95916.66
2017-12-24T06:46:09.306Z,95917.89
2017-12-24T06:48:37.009Z,95913.74
2017-12-24T06:51:04.957Z,95920.94
2017-12-24T06:53:45.850Z,95918.40
2017-12-24T06:58:52.187Z,95922.08
2017-12-24T07:01:26.884Z,95919.00
2017-12-24T07:03:55.524Z,95912.27
2017-12-24T07:06:23.930Z,95912.77
2017-12-24T07:08:51.715Z,95907.34
2017-12-24T07:11:19.402Z,95913.84
2017-12-24T07:13:47.454Z,95914.34
2017-12-24T07:16:15.132Z,95899.34
2017-12-24T07:18:53.924Z,95918.80
2017-12-24T07:21:21.610Z,95917.66
2017-12-24T07:23:50.150Z,95910.02
2017-12-24T07:26:17.764Z,95911.02
2017-12-24T07:28:46.526Z,95928.88
2017-12-24T07:31:15.231Z,95927.39
2017-12-24T07:33:42.886Z,95938.66
2017-12-24T07:36:10.519Z,95928.27
2017-12-24T07:38:38.496Z,95934.27
2017-12-24T07:41:06.854Z,95918.33
2017-12-24T07:43:34.688Z,95943.40
2017-12-24T07:46:03.491Z,95942.70
2017-12-24T07:48:34.732Z,95932.30
2017-12-24T07:51:02.468Z,95941.06
2017-12-24T07:53:31.007Z,95919.95
2017-12-24T07:55:59.574Z,95941.59
2017-12-24T07:58:30.399Z,95925.67
2017-12-24T08:01:00.541Z,95914.65
2017-12-24T08:07:13.983Z,95930.56
2017-12-24T08:09:46.372Z,95921.97
2017-12-24T08:12:14.033Z,95937.73
2017-12-24T08:14:41.959Z,95927.23
2017-12-24T08:17:09.728Z,95922.81
2017-12-24T08:19:37.412Z,95932.53
2017-12-24T08:22:05.095Z,95932.50
2017-12-24T08:24:36.302Z,95931.58
2017-12-24T08:27:05.138Z,95900.50
2017-12-24T08:29:33.045Z,95909.80
2017-12-24T08:32:04.146Z,95920.24
2017-12-24T08:34:32.347Z,95927.30
2017-12-24T08:40:35.836Z,95955.52
2017-12-24T08:43:22.647Z,95934.14
2017-12-24T08:49:30.490Z,95974.64
2017-12-24T08:51:58.271Z,95969.66
2017-12-24T08:54:27.357Z,95963.53
2017-12-24T08:56:58.887Z,95963.30
2017-12-24T08:59:35.375Z,95958.38
2017-12-24T09:02:05.179Z,95962.20
2017-12-24T09:04:33.458Z,95956.23
2017-12-24T09:07:01.662Z,95965.51
2017-12-24T09:09:36.672Z,95956.02
2017-12-24T09:12:06.486Z,95934.80
2017-12-24T09:14:37.699Z,95961.28
2017-12-24T09:17:14.661Z,95968.87
2017-12-24T09:19:42.686Z,95968.75
2017-12-24T09:22:10.846Z,95959.73
2017-12-24T09:24:38.788Z,95971.31
2017-12-24T09:27:07.538Z,95961.64
2017-12-24T09:29:35.180Z,95969.17
2017-12-24T09:32:03.593Z,95966.58
2017-12-24T09:34:33.281Z,95965.93
2017-12-24T09:37:13.666Z,95955.50
2017-12-24T09:39:47.487Z,95959.69
2017-12-24T09:42:15.341Z,95958.12
2017-12-24T09:44:43.784Z,95950.23
2017-12-24T09:47:12.120Z,95954.27
2017-12-24T09:56:54.554Z,95935.97
2017-12-24T09:59:24.911Z,95918.61
2017-12-24T10:01:56.928Z,95913.79
2017-12-24T10:04:25.157Z,95920.01
2017-12-24T10:07:41.432Z,95918.08
2017-12-24T10:13:21.078Z,95914.28
2017-12-24T10:15:54.197Z,95902.55
2017-12-24T10:18:22.248Z,95909.05
2017-12-24T10:21:18.368Z,95912.48
2017-12-24T10:27:21.165Z,95912.34
2017-12-24T10:29:49.330Z,95917.49
2017-12-24T10:32:20.476Z,95926.53
2017-12-24T10:34:52.498Z,95922.46
2017-12-24T10:37:21.849Z,95937.19
2017-12-24T10:39:53.766Z,95915.58
2017-12-24T10:45:02.258Z,95920.23
2017-12-24T11:03:45.602Z,95893.44
2017-12-24T11:06:13.809Z,95900.95
2017-12-24T11:08:43.356Z,95901.04
2017-12-24T11:11:11.438Z,95890.26
2017-12-24T11:13:43.758Z,95879.66
2017-12-24T11:16:12.281Z,95876.61
2017-12-24T11:21:12.369Z,95848.97
2017-12-24T11:23:40.437Z,95845.67
2017-12-24T11:26:09.877Z,95857.88
2017-12-24T11:28:40.087Z,95863.37
2017-12-24T11:31:07.905Z,95855.02
2017-12-24T11:33:35.588Z,95848.27
2017-12-24T11:36:03.551Z,95837.73
2017-12-24T11:38:31.993Z,95838.69
2017-12-24T11:41:14.407Z,95818.77
2017-12-24T11:43:42.533Z,95839.48
2017-12-24T11:46:11.563Z,95826.47
2017-12-24T11:48:39.542Z,95828.07
2017-12-24T11:51:07.769Z,95831.84
2017-12-24T11:53:36.648Z,95825.34
2017-12-24T11:56:05.410Z,95814.74
2017-12-24T11:58:33.201Z,95793.85
2017-12-24T12:01:01.309Z,95813.98
2017-12-24T12:03:29.178Z,95821.34
2017-12-24T12:05:56.949Z,95826.52
2017-12-24T12:08:39.297Z,95823.74
2017-12-24T12:11:10.003Z,95817.91
2017-12-24T12:13:40.228Z,95809.85
2017-12-24T12:16:09.103Z,95823.92
2017-12-24T12:18:41.356Z,95808.43
2017-12-24T12:21:09.044Z,95808.83
2017-12-24T12:23:36.780Z,95804.62
2017-12-24T12:26:04.510Z,95807.30
2017-12-24T12:28:33.643Z,95811.23
2017-12-24T12:31:01.391Z,95818.36
2017-12-24T12:33:34.008Z,95826.02
2017-12-24T12:36:04.240Z,95817.97
2017-12-24T12:38:37.711Z,95810.94
2017-12-24T12:41:12.840Z,95829.53
2017-12-24T12:43:40.968Z,95819.11
2017-12-24T12:46:08.641Z,95823.96
2017-12-24T12:48:36.478Z,95838.84
2017-12-24T12:51:04.211Z,95824.78
2017-12-24T12:53:31.858Z,95860.47
2017-12-24T12:55:59.672Z,95842.88
2017-12-24T12:58:27.829Z,95862.79
2017-12-24T13:00:55.643Z,95857.47
2017-12-24T13:03:23.434Z,95873.47
2017-12-24T13:05:51.747Z,95866.54
2017-12-24T13:08:19.946Z,95863.53
2017-12-24T13:10:47.817Z,95861.99
2017-12-24T13:13:15.544Z,95878.95
2017-12-24T13:15:43.257Z,95880.92
2017-12-24T13:18:10.978Z,95892.25
2017-12-24T13:20:38.686Z,95886.84
2017-12-24T13:23:06.459Z,95878.16
2017-12-24T13:25:34.204Z,95892.95
2017-12-24T13:28:01.907Z,95915.70
2017-12-24T13:30:29.615Z,95926.87
2017-12-24T13:32:58.612Z,95925.03
2017-12-24T13:35:26.282Z,95925.94
2017-12-24T13:37:54.006Z,95951.91
2017-12-24T13:40:22.015Z,95943.33
2017-12-24T13:42:49.701Z,95967.28
2017-12-24T13:45:17.618Z,95965.38
2017-12-24T13:47:45.512Z,95965.64
2017-12-24T13:50:13.461Z,95976.23
2017-12-24T13:52:41.244Z,95968.93
2017-12-24T13:55:09.069Z,95983.69
2017-12-24T13:57:36.975Z,95989.63
2017-12-24T14:00:06.966Z,95993.58
2017-12-24T14:02:34.620Z,96001.72
2017-12-24T14:05:03.008Z,95995.63
2017-12-24T14:07:30.630Z,96001.77
2017-12-24T14:09:59.143Z,96004.82
2017-12-24T14:12:27.907Z,96007.06
2017-12-24T14:14:56.099Z,95997.92
2017-12-24T14:17:24.115Z,96004.98
2017-12-24T14:19:51.828Z,96006.70
2017-12-24T14:22:19.634Z,96009.95
2017-12-24T14:24:47.361Z,96003.39
2017-12-24T14:27:15.988Z,96010.77
2017-12-24T14:29:44.526Z,96011.66
2017-12-24T14:32:12.907Z,96005.67
2017-12-24T14:34:41.485Z,96003.43
2017-12-24T14:37:09.126Z,96005.39
2017-12-24T14:39:36.854Z,96016.98
2017-12-24T14:42:04.671Z,96014.17
2017-12-24T14:44:36.334Z,96004.05
2017-12-24T14:47:04.135Z,96023.84
2017-12-24T14:49:31.823Z,96020.35
2017-12-24T14:51:59.780Z,96037.63
2017-12-24T14:54:27.482Z,96022.25
2017-12-24T14:56:55.212Z,96030.41
2017-12-24T14:59:22.926Z,96032.91
2017-12-24T15:01:50.691Z,96029.27
2017-12-24T15:04:18.459Z,96028.42
2017-12-24T15:06:47.198Z,96030.89
2017-12-24T15:09:14.917Z,96042.26
2017-12-24T15:11:42.632Z,96047.63
2017-12-24T15:14:10.427Z,96054.20
2017-12-24T15:16:39.184Z,96052.74
2017-12-24T15:19:07.856Z,96054.92
2017-12-24T15:21:35.610Z,96055.33
2017-12-24T15:24:03.490Z,96061.27
2017-12-24T15:26:32.612Z,96061.76
2017-12-24T15:29:00.356Z,96058.62
2017-12-24T15:31:28.238Z,96052.05
2017-12-24T15:33:56.278Z,96056.27
2017-12-24T15:36:24.114Z,96057.72
2017-12-24T15:38:51.976Z,96051.80
2017-12-24T15:41:21.098Z,96052.03
2017-12-24T15:43:48.943Z,96051.50
2017-12-24T15:46:16.636Z,96043.42
2017-12-24T15:48:44.565Z,96044.63
2017-12-24T15:51:12.259Z,96041.82
2017-12-24T15:53:40.047Z,96041.70
2017-12-24T15:56:08.498Z,96046.81
2017-12-24T15:58:36.399Z,96042.81
2017-12-24T16:01:05.033Z,96053.70
2017-12-24T16:03:33.546Z,96049.95
2017-12-24T16:06:01.313Z,96051.11
2017-12-24T16:08:30.303Z,96049.00
2017-12-24T16:10:58.123Z,96045.47
2017-12-24T16:13:25.871Z,96047.86
2017-12-24T16:15:53.516Z,96038.40
2017-12-24T16:18:21.228Z,96035.48
2017-12-24T16:20:48.874Z,96043.59
2017-12-24T16:23:16.898Z,96041.14
2017-12-24T16:25:44.848Z,96051.62
2017-12-24T16:28:13.700Z,96053.00
2017-12-24T16:30:41.583Z,96043.29
2017-12-24T16:33:09.250Z,96053.50
2017-12-24T16:35:36.927Z,96046.37
2017-12-24T16:38:05.423Z,96039.97
2017-12-24T16:40:33.595Z,96053.64
2017-12-24T16:43:01.444Z,96056.05
2017-12-24T16:45:29.595Z,96048.17
2017-12-24T16:47:57.344Z,96044.09
2017-12-24T16:50:25.217Z,96049.88
2017-12-24T16:52:53.001Z,96055.08
2017-12-24T16:55:21.691Z,96065.60
2017-12-24T16:57:49.640Z,96065.30
2017-12-24T17:00:17.458Z,96059.56
2017-12-24T17:02:45.377Z,96057.46
2017-12-24T17:05:13.070Z,96074.84
2017-12-24T17:07:40.747Z,96063.19
2017-12-24T17:10:08.492Z,96070.63
2017-12-24T17:12:36.155Z,96057.06
2017-12-24T17:15:04.389Z,96063.45
2017-12-24T17:17:32.091Z,96067.80
2017-12-24T17:19:59.960Z,96072.11
2017-12-24T17:22:27.686Z,96073.22
2017-12-24T17:24:55.706Z,96067.72
2017-12-24T17:27:23.397Z,96073.85
2017-12-24T17:29:51.077Z,96062.56
2017-12-24T17:32:18.778Z,96077.79
2017-12-24T17:34:46.411Z,96075.45
2017-12-24T17:37:14.068Z,96078.98
2017-12-24T17:39:41.834Z,96080.14
2017-12-24T17:42:09.513Z,96082.76
2017-12-24T17:44:37.945Z,96078.09
2017-12-24T17:47:05.635Z,96090.33
2017-12-24T17:49:33.410Z,96088.53
2017-12-24T17:52:01.075Z,96086.91
2017-12-24T17:54:29.217Z,96091.54
2017-12-24T17:56:56.911Z,96072.77
2017-12-24T17:59:24.565Z,96093.41
2017-12-24T18:01:53.751Z,96086.80
2017-12-24T18:04:21.435Z,96084.95
2017-12-24T18:06:49.166Z,96086.69
2017-12-24T18:09:17.023Z,96092.83
2017-12-24T18:11:44.870Z,96088.05
2017-12-24T18:14:13.047Z,96087.45
2017-12-24T18:16:40.944Z,96095.21
2017-12-24T18:19:08.727Z,96083.86
2017-12-24T18:21:36.487Z,96087.69
2017-12-24T18:24:04.259Z,96091.48
2017-12-24T18:26:32.028Z,96081.49
2017-12-24T18:28:59.689Z,96091.67
2017-12-24T18:31:27.488Z,96098.52
2017-12-24T18:33:55.233Z,96091.63
2017-12-24T18:36:22.953Z,96090.45
2017-12-24T18:38:51.462Z,96101.78
2017-12-24T18:41:19.186Z,96105.33
2017-12-24T18:43:47.005Z,96105.38
2017-12-24T18:46:14.848Z,96107.16
2017-12-24T18:48:42.596Z,96110.74
2017-12-24T18:51:10.339Z,96122.14
2017-12-24T18:53:38.130Z,96110.47
2017-12-24T18:56:05.812Z,96119.27
2017-12-24T18:58:34.184Z,96123.66
2017-12-24T19:01:02.023Z,96123.39
2017-12-24T19:03:30.989Z,96120.70
2017-12-24T19:05:58.703Z,96116.67
2017-12-24T19:08:26.455Z,96119.61
2017-12-24T19:10:54.133Z,96119.58
2017-12-24T19:13:22.335Z,96117.98
2017-12-24T19:15:50.021Z,96118.53
2017-12-24T19:18:17.864Z,96134.27
2017-12-24T19:20:45.783Z,96140.44
2017-12-24T19:23:13.536Z,96136.74
2017-12-24T19:25:41.221Z,96140.73
2017-12-24T19:28:08.927Z,96141.17
2017-12-24T19:30:37.272Z,96134.05
2017-12-24T19:33:05.131Z,96137.64
2017-12-24T19:35:32.805Z,96135.95
2017-12-24T19:38:00.473Z,96138.95
2017-12-24T19:40:28.141Z,96134.47
2017-12-24T19:42:56.709Z,96125.99
2017-12-24T19:45:24.700Z,96129.17
2017-12-24T19:47:54.262Z,96132.77
2017-12-24T19:50:22.164Z,96132.05
2017-12-24T19:52:49.869Z,96124.84
2017-12-24T19:55:17.715Z,96129.06
2017-12-24T19:57:46.260Z,96137.98
2017-12-24T20:00:14.179Z,96136.53
2017-12-24T20:02:41.883Z,96135.79
2017-12-24T20:05:09.786Z,96135.68
2017-12-24T20:07:37.484Z,96136.89
2017-12-24T20:12:40.539Z,96144.45
2017-12-24T20:15:08.497Z,96146.47
2017-12-24T20:17:36.279Z,96150.03
2017-12-24T20:20:04.050Z,96160.11
2017-12-24T20:22:31.856Z,96155.93
2017-12-24T20:24:59.808Z,96163.64
2017-12-24T20:27:27.747Z,96163.63
2017-12-24T20:29:56.008Z,96172.21
2017-12-24T20:32:23.780Z,96165.78
2017-12-24T20:34:51.533Z,96175.78
2017-12-24T20:37:19.218Z,96176.73
2017-12-24T20:39:46.963Z,96182.83
2017-12-24T20:42:14.676Z,96178.73
2017-12-24T20:44:42.399Z,96186.61
2017-12-24T20:47:10.032Z,96186.52
2017-12-24T20:49:38.754Z,96187.50
2017-12-24T20:52:06.384Z,96194.27
2017-12-24T20:54:34.095Z,96202.17
2017-12-24T20:57:01.964Z,96200.52
2017-12-24T20:59:30.436Z,96199.77
2017-12-24T21:01:58.229Z,96202.05
2017-12-24T21:04:26.029Z,96205.86
2017-12-24T21:06:57.394Z,96166.38
2017-12-24T21:09:25.859Z,96201.61
2017-12-24T21:11:53.501Z,96204.82
2017-12-24T21:14:21.892Z,96203.53
2017-12-24T21:16:49.944Z,96206.13
2017-12-24T21:19:17.611Z,96212.44
2017-12-24T21:21:45.304Z,96212.67
2017-12-24T21:24:12.973Z,96222.59
2017-12-24T21:26:40.822Z,96227.27
2017-12-24T21:29:08.600Z,96234.06
2017-12-24T21:31:36.406Z,96233.20
2017-12-24T21:34:04.088Z,96233.36
2017-12-24T21:36:31.797Z,96233.20
2017-12-24T21:41:28.347Z,96230.61
2017-12-24T21:43:55.990Z,96237.70
2017-12-24T21:46:23.882Z,96236.45
2017-12-24T21:51:39.709Z,96237.02
2017-12-24T21:54:07.656Z,96243.41
2017-12-24T21:56:40.438Z,96251.11
2017-12-24T21:59:08.189Z,96256.11
2017-12-24T22:01:36.354Z,96255.82
2017-12-24T22:04:04.131Z,96250.95
2017-12-24T22:06:31.812Z,96250.92
2017-12-24T22:08:59.449Z,96262.51
2017-12-24T22:16:45.370Z,96268.41
2017-12-24T22:19:13.201Z,96265.94
2017-12-24T22:21:40.862Z,96263.94
2017-12-24T22:24:09.190Z,96254.89
2017-12-24T22:26:37.971Z,96261.58
2017-12-24T22:29:05.881Z,96259.05
2017-12-24T22:31:33.637Z,96270.03
2017-12-24T22:34:01.447Z,96272.58
2017-12-24T22:36:29.220Z,96270.38
2017-12-24T22:38:56.900Z,96258.13
2017-12-24T22:41:24.575Z,96256.86
2017-12-24T22:43:52.804Z,96251.72
2017-12-24T22:46:20.499Z,96259.23
2017-12-24T22:48:48.220Z,96254.45
2017-12-24T22:51:15.939Z,96253.45
2017-12-24T22:53:43.851Z,96255.91
2017-12-24T22:56:11.529Z,96257.30
2017-12-24T22:58:39.282Z,96260.09
2017-12-24T23:01:07.269Z,96260.40
2017-12-24T23:03:35.025Z,96262.38
2017-12-24T23:06:02.839Z,96261.86
2017-12-24T23:08:30.518Z,96264.66
2017-12-24T23:10:58.209Z,96255.10
2017-12-24T23:13:25.985Z,96251.25
2017-12-24T23:15:53.768Z,96263.20
2017-12-24T23:18:23.142Z,96269.17
2017-12-24T23:20:50.847Z,96274.10
2017-12-24T23:23:18.747Z,96267.14
2017-12-24T23:25:46.519Z,96271.48
2017-12-24T23:28:14.811Z,96268.75
2017-12-24T23:30:42.616Z,96265.76
2017-12-24T23:33:11.441Z,96254.64
2017-12-24T23:35:39.930Z,96255.19
2017-12-24T23:38:08.354Z,96258.61
2017-12-24T23:40:36.020Z,96255.34
2017-12-24T23:43:03.754Z,96262.58
2017-12-24T23:45:31.812Z,96260.36
2017-12-24T23:47:59.601Z,96270.11
2017-12-24T23:50:27.284Z,96271.12
2017-12-24T23:53:00.681Z,96273.21
2017-12-24T23:55:28.709Z,96273.18
2017-12-24T23:57:56.559Z,96265.45
